createdAt,value
2022-11-17T00:01:10.614Z,8.42
2022-11-17T00:04:05.421Z,8.40
2022-11-17T00:06:55.366Z,8.35
2022-11-17T00:09:35.623Z,8.33
2022-11-17T00:12:28.465Z,8.23
2022-11-17T00:15:05.517Z,8.12
2022-11-17T00:17:39.109Z,8.12
2022-11-17T00:20:32.125Z,8.19
2022-11-17T00:23:07.754Z,8.19
2022-11-17T00:25:46.768Z,8.22
2022-11-17T00:28:22.617Z,8.21
2022-11-17T00:31:11.576Z,8.10
2022-11-17T00:34:08.812Z,8.06
2022-11-17T00:37:14.753Z,8.00
2022-11-17T00:40:12.669Z,8.08
2022-11-17T00:42:44.839Z,8.06
2022-11-17T00:46:12.747Z,7.95
2022-11-17T00:48:48.693Z,7.82
2022-11-17T00:51:19.501Z,7.82
2022-11-17T00:53:53.029Z,7.80
2022-11-17T00:56:43.823Z,7.81
2022-11-17T00:59:31.685Z,7.89
2022-11-17T01:02:12.400Z,7.95
2022-11-17T01:05:16.462Z,7.96
2022-11-17T01:08:07.302Z,7.92
2022-11-17T01:10:38.732Z,7.98
2022-11-17T01:13:17.074Z,7.96
2022-11-17T01:15:50.936Z,7.88
2022-11-17T01:18:26.369Z,7.86
2022-11-17T01:21:36.685Z,7.95
2022-11-17T01:24:27.391Z,7.80
2022-11-17T01:27:13.072Z,7.71
2022-11-17T01:29:48.008Z,7.73
2022-11-17T01:32:30.067Z,7.78
2022-11-17T01:35:46.077Z,7.86
2022-11-17T01:38:22.753Z,7.84
2022-11-17T01:40:54.016Z,7.77
2022-11-17T01:43:47.864Z,7.73
2022-11-17T01:47:04.213Z,7.65
2022-11-17T01:49:38.892Z,7.65
2022-11-17T01:52:13.143Z,7.76
2022-11-17T01:55:13.300Z,7.70
2022-11-17T01:57:46.681Z,7.70
2022-11-17T02:00:43.247Z,7.58
2022-11-17T02:03:39.773Z,7.55
2022-11-17T02:06:39.048Z,7.60
2022-11-17T02:09:42.357Z,7.56
2022-11-17T02:12:27.184Z,7.50
2022-11-17T02:15:34.502Z,7.55
2022-11-17T02:18:13.555Z,7.54
2022-11-17T02:21:18.916Z,7.56
2022-11-17T02:24:15.032Z,7.52
2022-11-17T02:27:29.070Z,7.56
2022-11-17T02:30:23.618Z,7.53
2022-11-17T02:33:09.237Z,7.41
2022-11-17T02:36:22.305Z,7.36
2022-11-17T02:39:24.004Z,7.31
2022-11-17T02:42:47.956Z,7.33
2022-11-17T02:45:30.233Z,7.29
2022-11-17T02:48:45.178Z,7.35
2022-11-17T02:51:51.398Z,7.35
2022-11-17T02:54:26.533Z,7.34
2022-11-17T02:57:05.002Z,7.23
2022-11-17T02:59:52.034Z,7.30
2022-11-17T03:02:53.098Z,7.34
2022-11-17T03:06:11.543Z,7.33
2022-11-17T03:09:27.497Z,7.26
2022-11-17T03:12:14.863Z,7.12
2022-11-17T03:15:30.799Z,7.11
2022-11-17T03:19:07.917Z,7.14
2022-11-17T03:22:31.567Z,7.19
2022-11-17T03:25:19.880Z,7.04
2022-11-17T03:28:18.354Z,7.12
2022-11-17T03:30:53.849Z,7.05
2022-11-17T03:33:50.361Z,7.05
2022-11-17T03:36:36.856Z,6.92
2022-11-17T03:39:40.648Z,7.00
2022-11-17T03:42:52.594Z,7.03
2022-11-17T03:45:38.344Z,6.95
2022-11-17T03:48:48.827Z,6.87
2022-11-17T03:51:27.722Z,6.80
2022-11-17T03:54:14.676Z,6.81
2022-11-17T03:57:13.571Z,6.96
2022-11-17T04:00:08.254Z,6.87
2022-11-17T04:03:00.116Z,6.91
2022-11-17T04:05:51.867Z,6.87
2022-11-17T04:08:34.818Z,6.95
2022-11-17T04:11:38.135Z,6.93
2022-11-17T04:14:43.403Z,6.99
2022-11-17T04:17:34.450Z,7.12
2022-11-17T04:20:26.296Z,6.98
2022-11-17T04:23:36.574Z,6.95
2022-11-17T04:26:39.287Z,6.97
2022-11-17T04:29:18.970Z,7.05
2022-11-17T04:32:03.863Z,6.98
2022-11-17T04:34:45.411Z,7.07
2022-11-17T04:37:34.955Z,7.08
2022-11-17T04:40:19.804Z,7.01
2022-11-17T04:42:52.847Z,7.04
2022-11-17T04:45:41.053Z,6.96
2022-11-17T04:48:39.733Z,7.00
2022-11-17T04:51:38.388Z,6.96
2022-11-17T04:54:24.067Z,7.05
2022-11-17T04:57:26.443Z,7.04
2022-11-17T05:00:54.636Z,7.09
2022-11-17T05:03:42.907Z,6.91
2022-11-17T05:06:32.476Z,6.95
2022-11-17T05:09:14.335Z,7.00
2022-11-17T05:12:26.780Z,7.06
2022-11-17T05:15:43.049Z,7.01
2022-11-17T05:18:16.645Z,6.96
2022-11-17T05:20:58.558Z,6.81
2022-11-17T05:24:01.549Z,6.85
2022-11-17T05:26:45.113Z,6.90
2022-11-17T05:29:34.476Z,6.71
2022-11-17T05:32:39.501Z,6.70
2022-11-17T05:35:10.339Z,6.74
2022-11-17T05:37:48.555Z,6.79
2022-11-17T05:40:52.957Z,6.85
2022-11-17T05:44:09.216Z,6.77
2022-11-17T05:47:05.323Z,6.79
2022-11-17T05:49:45.376Z,6.64
2022-11-17T05:52:17.961Z,6.69
2022-11-17T05:54:58.571Z,6.71
2022-11-17T05:57:47.160Z,6.80
2022-11-17T06:00:39.096Z,6.83
2022-11-17T06:03:53.050Z,6.84
2022-11-17T06:06:45.547Z,6.91
2022-11-17T06:09:33.329Z,6.93
2022-11-17T06:12:11.982Z,6.92
2022-11-17T06:15:22.000Z,6.85
2022-11-17T06:18:19.864Z,6.79
2022-11-17T06:21:00.479Z,6.68
2022-11-17T06:23:36.388Z,6.80
2022-11-17T06:26:24.657Z,6.86
2022-11-17T06:29:08.372Z,6.86
2022-11-17T06:32:08.470Z,6.89
2022-11-17T06:34:50.546Z,6.90
2022-11-17T06:38:05.585Z,6.86
2022-11-17T06:40:42.249Z,6.85
2022-11-17T06:43:39.680Z,6.89
2022-11-17T06:46:18.961Z,7.01
2022-11-17T06:49:26.045Z,7.02
2022-11-17T06:52:24.899Z,7.01
2022-11-17T06:55:41.814Z,6.96
2022-11-17T06:58:59.087Z,7.01
2022-11-17T07:01:43.918Z,7.01
2022-11-17T07:04:27.830Z,7.00
2022-11-17T07:07:28.420Z,7.01
2022-11-17T07:10:11.283Z,7.00
2022-11-17T07:13:34.663Z,7.04
2022-11-17T07:16:29.251Z,6.94
2022-11-17T07:19:58.994Z,7.01
2022-11-17T07:22:48.596Z,6.95
2022-11-17T07:25:44.533Z,6.91
2022-11-17T07:29:02.219Z,6.82
2022-11-17T07:32:14.666Z,6.84
2022-11-17T07:35:19.123Z,6.73
2022-11-17T07:38:50.758Z,6.71
2022-11-17T07:42:11.308Z,6.54
2022-11-17T07:45:17.114Z,6.66
2022-11-17T07:48:33.895Z,6.80
2022-11-17T07:51:52.371Z,6.91
2022-11-17T07:54:58.638Z,6.91
2022-11-17T07:57:54.516Z,7.04
2022-11-17T08:01:04.756Z,7.11
2022-11-17T08:03:44.436Z,7.19
2022-11-17T08:06:47.302Z,7.25
2022-11-17T08:09:57.510Z,7.32
2022-11-17T08:12:43.982Z,7.34
2022-11-17T08:15:22.138Z,7.39
2022-11-17T08:18:09.798Z,7.43
2022-11-17T08:20:48.235Z,7.46
2022-11-17T08:23:45.688Z,7.50
2022-11-17T08:26:51.903Z,7.59
2022-11-17T08:30:18.386Z,7.63
2022-11-17T08:33:07.667Z,7.66
2022-11-17T08:35:48.239Z,7.65
2022-11-17T08:38:39.980Z,7.72
2022-11-17T08:41:58.627Z,7.72
2022-11-17T08:44:47.810Z,7.81
2022-11-17T08:47:49.406Z,7.78
2022-11-17T08:50:25.355Z,7.79
2022-11-17T08:53:24.648Z,7.83
2022-11-17T08:56:29.614Z,7.90
2022-11-17T08:59:13.939Z,7.94
2022-11-17T09:01:49.971Z,7.92
2022-11-17T09:05:12.715Z,7.97
2022-11-17T09:07:51.761Z,7.93
2022-11-17T09:10:49.405Z,8.00
2022-11-17T09:13:41.217Z,8.02
2022-11-17T09:16:41.287Z,8.02
2022-11-17T09:19:46.777Z,8.03
2022-11-17T09:22:54.310Z,8.13
2022-11-17T09:25:53.523Z,8.16
2022-11-17T09:28:38.646Z,8.14
2022-11-17T09:31:30.839Z,8.27
2022-11-17T09:34:37.686Z,8.40
2022-11-17T09:37:31.488Z,8.44
2022-11-17T09:40:54.746Z,8.55
2022-11-17T09:44:14.508Z,8.60
2022-11-17T09:47:11.923Z,8.55
2022-11-17T09:50:02.630Z,8.54
2022-11-17T09:52:37.049Z,8.60
2022-11-17T09:55:28.514Z,8.60
2022-11-17T09:58:26.954Z,8.60
2022-11-17T10:00:54.393Z,8.65
2022-11-17T10:03:31.717Z,8.91
2022-11-17T10:06:00.775Z,9.04
2022-11-17T10:08:40.552Z,9.16
2022-11-17T10:11:31.648Z,9.32
2022-11-17T10:14:13.943Z,9.36
2022-11-17T10:16:43.841Z,9.27
2022-11-17T10:19:23.005Z,9.34
2022-11-17T10:21:54.662Z,9.54
2022-11-17T10:24:38.189Z,9.62
2022-11-17T10:27:15.558Z,9.74
2022-11-17T10:30:04.003Z,9.88
2022-11-17T10:32:34.687Z,10.00
2022-11-17T10:35:15.330Z,10.08
2022-11-17T10:37:51.595Z,10.23
2022-11-17T10:40:25.332Z,10.34
2022-11-17T10:43:01.588Z,10.32
2022-11-17T10:45:28.814Z,10.35
2022-11-17T10:48:19.954Z,10.45
2022-11-17T10:50:59.930Z,10.55
2022-11-17T10:53:46.042Z,10.47
2022-11-17T10:56:18.487Z,10.39
2022-11-17T10:58:56.625Z,10.38
2022-11-17T11:01:35.338Z,10.37
2022-11-17T11:04:03.998Z,10.39
2022-11-17T11:06:32.750Z,10.41
2022-11-17T11:09:17.390Z,10.41
2022-11-17T11:11:48.246Z,10.42
2022-11-17T11:14:22.158Z,10.53
2022-11-17T11:16:50.982Z,10.50
2022-11-17T11:19:19.991Z,10.47
2022-11-17T11:22:28.048Z,10.54
2022-11-17T11:25:09.986Z,10.59
2022-11-17T11:27:42.486Z,10.58
2022-11-17T11:30:15.410Z,10.64
2022-11-17T11:33:00.262Z,10.70
2022-11-17T11:35:35.663Z,10.74
2022-11-17T11:38:17.219Z,10.73
2022-11-17T11:40:51.543Z,10.69
2022-11-17T11:43:39.694Z,10.68
2022-11-17T11:46:09.062Z,10.63
2022-11-17T11:48:40.078Z,10.64
2022-11-17T11:51:15.225Z,10.70
2022-11-17T11:53:44.566Z,10.73
2022-11-17T11:56:30.783Z,10.82
2022-11-17T11:59:07.829Z,11.03
2022-11-17T12:01:45.239Z,10.96
2022-11-17T12:04:23.841Z,11.08
2022-11-17T12:07:06.258Z,11.05
2022-11-17T12:09:54.796Z,11.02
2022-11-17T12:12:30.902Z,10.96
2022-11-17T12:15:20.366Z,10.97
2022-11-17T12:17:52.954Z,10.90
2022-11-17T12:20:38.423Z,10.81
2022-11-17T12:23:14.034Z,10.79
2022-11-17T12:25:53.917Z,10.76
2022-11-17T12:28:38.901Z,10.94
2022-11-17T12:31:10.513Z,11.08
2022-11-17T12:33:52.316Z,11.32
2022-11-17T12:36:30.040Z,11.42
2022-11-17T12:38:58.573Z,11.51
2022-11-17T12:41:46.994Z,11.60
2022-11-17T12:44:32.292Z,11.52
2022-11-17T12:47:20.386Z,11.39
2022-11-17T12:50:02.168Z,11.26
2022-11-17T12:52:46.523Z,11.22
2022-11-17T12:55:17.871Z,11.13
2022-11-17T12:57:50.313Z,11.14
2022-11-17T13:00:23.545Z,11.26
2022-11-17T13:03:02.812Z,11.26
2022-11-17T13:05:30.285Z,11.25
2022-11-17T13:08:15.015Z,11.25
2022-11-17T13:10:41.832Z,11.18
2022-11-17T13:13:24.664Z,11.10
2022-11-17T13:16:00.310Z,11.03
2022-11-17T13:18:40.922Z,10.96
2022-11-17T13:21:26.029Z,10.97
2022-11-17T13:23:53.603Z,10.88
2022-11-17T13:26:23.218Z,10.83
2022-11-17T13:29:05.217Z,10.85
2022-11-17T13:31:32.895Z,10.78
2022-11-17T13:33:59.487Z,10.71
2022-11-17T13:36:27.320Z,10.66
2022-11-17T13:39:00.318Z,10.61
2022-11-17T13:41:32.244Z,10.59
2022-11-17T13:43:59.951Z,10.54
2022-11-17T13:46:26.757Z,10.56
2022-11-17T13:48:53.626Z,10.65
2022-11-17T13:51:20.310Z,10.66
2022-11-17T13:53:51.305Z,10.72
2022-11-17T13:56:29.388Z,10.66
2022-11-17T13:58:57.059Z,10.76
2022-11-17T14:01:28.963Z,10.76
2022-11-17T14:04:22.643Z,10.83
2022-11-17T14:06:55.710Z,10.91
2022-11-17T14:09:23.142Z,11.08
2022-11-17T14:11:50.433Z,11.14
2022-11-17T14:14:42.049Z,11.31
2022-11-17T14:17:21.443Z,11.49
2022-11-17T14:19:48.582Z,11.47
2022-11-17T14:22:22.381Z,11.53
2022-11-17T14:24:50.486Z,11.44
2022-11-17T14:27:29.709Z,11.39
2022-11-17T14:29:56.484Z,11.39
2022-11-17T14:32:23.066Z,11.46
2022-11-17T14:34:49.752Z,11.41
2022-11-17T14:37:16.891Z,11.31
2022-11-17T14:39:43.595Z,11.36
2022-11-17T14:42:11.213Z,11.35
2022-11-17T14:44:37.968Z,11.39
2022-11-17T14:47:04.587Z,11.33
2022-11-17T14:49:31.898Z,11.39
2022-11-17T14:51:59.325Z,11.34
2022-11-17T14:54:26.271Z,11.27
2022-11-17T14:56:52.872Z,11.33
2022-11-17T14:59:19.608Z,11.35
2022-11-17T15:01:46.417Z,11.25
2022-11-17T15:04:42.930Z,11.26
2022-11-17T15:07:01.663Z,11.26
2022-11-17T15:09:28.425Z,11.23
2022-11-17T15:11:55.180Z,11.03
2022-11-17T15:14:22.691Z,10.96
2022-11-17T15:16:49.358Z,10.98
2022-11-17T15:19:16.168Z,10.90
2022-11-17T15:21:42.966Z,10.91
2022-11-17T15:24:09.663Z,10.77
2022-11-17T15:26:36.473Z,10.77
2022-11-17T15:29:03.325Z,10.75
2022-11-17T15:31:30.035Z,10.67
2022-11-17T15:33:56.680Z,10.60
2022-11-17T15:36:23.696Z,10.50
2022-11-17T15:38:50.410Z,10.49
2022-11-17T15:41:17.174Z,10.24
2022-11-17T15:43:44.650Z,10.18
2022-11-17T15:46:14.687Z,9.98
2022-11-17T15:48:43.536Z,10.00
2022-11-17T15:51:15.894Z,9.98
2022-11-17T15:53:43.747Z,9.92
2022-11-17T15:56:20.726Z,9.96
2022-11-17T15:58:49.034Z,9.86
2022-11-17T16:01:17.332Z,9.79
2022-11-17T16:03:45.366Z,9.75
2022-11-17T16:06:12.696Z,9.79
2022-11-17T16:08:40.014Z,9.83
2022-11-17T16:11:07.021Z,9.93
2022-11-17T16:13:34.035Z,9.87
2022-11-17T16:16:01.228Z,9.89
2022-11-17T16:18:28.562Z,9.80
2022-11-17T16:20:57.949Z,9.65
2022-11-17T16:23:28.218Z,9.68
2022-11-17T16:25:54.988Z,9.75
2022-11-17T16:28:21.647Z,9.75
2022-11-17T16:30:48.281Z,9.67
2022-11-17T16:33:16.586Z,9.67
2022-11-17T16:35:45.382Z,9.77
2022-11-17T16:38:17.054Z,9.78
2022-11-17T16:40:44.236Z,9.76
2022-11-17T16:43:13.263Z,9.78
2022-11-17T16:45:45.236Z,9.85
2022-11-17T16:48:12.665Z,9.90
2022-11-17T16:50:40.859Z,9.83
2022-11-17T16:53:07.757Z,9.90
2022-11-17T16:55:38.033Z,9.82
2022-11-17T16:58:06.696Z,9.85
2022-11-17T17:00:37.795Z,9.85
2022-11-17T17:03:04.783Z,9.93
2022-11-17T17:05:31.434Z,9.91
2022-11-17T17:07:58.328Z,9.82
2022-11-17T17:10:26.324Z,9.85
2022-11-17T17:12:53.378Z,9.88
2022-11-17T17:15:20.138Z,9.89
2022-11-17T17:17:46.939Z,9.93
2022-11-17T17:20:13.577Z,9.91
2022-11-17T17:22:40.484Z,9.95
2022-11-17T17:25:07.879Z,10.01
2022-11-17T17:27:34.624Z,10.02
2022-11-17T17:30:01.406Z,9.95
2022-11-17T17:32:28.104Z,9.96
2022-11-17T17:34:54.695Z,9.98
2022-11-17T17:37:21.419Z,10.07
2022-11-17T17:39:48.036Z,10.09
2022-11-17T17:42:14.867Z,9.90
2022-11-17T17:44:41.717Z,9.90
2022-11-17T17:47:08.462Z,10.01
2022-11-17T17:49:35.130Z,9.95
2022-11-17T17:52:01.942Z,9.87
2022-11-17T17:54:28.732Z,9.90
2022-11-17T17:56:57.691Z,9.95
2022-11-17T17:59:24.322Z,9.99
2022-11-17T18:01:51.522Z,10.02
2022-11-17T18:04:18.208Z,9.91
2022-11-17T18:06:49.024Z,9.92
2022-11-17T18:09:20.208Z,9.95
2022-11-17T18:11:54.542Z,10.00
2022-11-17T18:14:24.654Z,9.97
2022-11-17T18:16:53.550Z,9.96
2022-11-17T18:19:20.763Z,10.02
2022-11-17T18:21:47.495Z,10.05
2022-11-17T18:24:15.366Z,9.98
2022-11-17T18:26:43.212Z,9.97
2022-11-17T18:29:17.063Z,9.94
2022-11-17T18:31:46.860Z,9.95
2022-11-17T18:34:17.179Z,10.05
2022-11-17T18:36:43.821Z,10.10
2022-11-17T18:39:10.669Z,9.96
2022-11-17T18:41:37.518Z,9.94
2022-11-17T18:44:04.401Z,10.00
2022-11-17T18:46:32.355Z,9.95
2022-11-17T18:48:59.657Z,9.94
2022-11-17T18:51:32.006Z,9.95
2022-11-17T18:54:00.922Z,9.97
2022-11-17T18:56:31.855Z,9.89
2022-11-17T18:58:59.370Z,10.03
2022-11-17T19:01:30.567Z,9.91
2022-11-17T19:04:00.961Z,9.92
2022-11-17T19:06:27.823Z,9.87
2022-11-17T19:08:54.729Z,9.91
2022-11-17T19:11:22.766Z,9.92
2022-11-17T19:13:49.577Z,9.99
2022-11-17T19:16:19.349Z,9.98
2022-11-17T19:18:48.228Z,10.00
2022-11-17T19:21:23.955Z,9.96
2022-11-17T19:23:52.205Z,9.91
2022-11-17T19:26:21.647Z,9.86
2022-11-17T19:28:48.881Z,9.88
2022-11-17T19:31:20.182Z,9.87
2022-11-17T19:33:48.433Z,9.80
2022-11-17T19:36:17.955Z,9.83
2022-11-17T19:38:48.215Z,9.82
2022-11-17T19:41:17.589Z,9.85
2022-11-17T19:43:45.708Z,9.86
2022-11-17T19:46:14.870Z,9.97
2022-11-17T19:48:42.206Z,9.93
2022-11-17T19:51:15.018Z,9.96
2022-11-17T19:53:42.409Z,9.96
2022-11-17T19:56:09.917Z,9.95
2022-11-17T19:58:36.627Z,9.88
2022-11-17T20:01:15.348Z,9.96
2022-11-17T20:03:43.113Z,9.99
2022-11-17T20:06:11.251Z,9.94
2022-11-17T20:08:39.094Z,9.81
2022-11-17T20:11:12.505Z,9.90
2022-11-17T20:13:40.151Z,9.95
2022-11-17T20:16:12.183Z,9.97
2022-11-17T20:18:43.418Z,9.96
2022-11-17T20:21:13.880Z,9.97
2022-11-17T20:23:41.966Z,9.92
2022-11-17T20:26:13.768Z,9.93
2022-11-17T20:28:41.075Z,10.01
2022-11-17T20:31:12.903Z,9.95
2022-11-17T20:33:40.783Z,9.93
2022-11-17T20:36:09.806Z,9.81
2022-11-17T20:38:36.710Z,9.87
2022-11-17T20:41:04.881Z,9.84
2022-11-17T20:43:32.594Z,9.82
2022-11-17T20:45:59.384Z,9.85
2022-11-17T20:48:27.561Z,9.88
2022-11-17T20:51:01.156Z,9.89
2022-11-17T20:53:29.060Z,9.86
2022-11-17T20:55:57.146Z,9.92
2022-11-17T20:58:24.959Z,9.95
2022-11-17T21:00:52.188Z,9.93
2022-11-17T21:03:19.424Z,9.99
2022-11-17T21:06:00.642Z,9.94
2022-11-17T21:08:30.103Z,9.89
2022-11-17T21:10:58.743Z,9.89
2022-11-17T21:13:25.855Z,9.83
2022-11-17T21:16:21.671Z,9.92
2022-11-17T21:18:48.804Z,9.93
2022-11-17T21:21:15.997Z,9.85
2022-11-17T21:23:43.978Z,9.88
2022-11-17T21:26:18.727Z,9.92
2022-11-17T21:28:46.809Z,9.95
2022-11-17T21:31:15.663Z,9.88
2022-11-17T21:33:43.583Z,9.86
2022-11-17T21:36:15.493Z,9.82
2022-11-17T21:38:43.333Z,9.80
2022-11-17T21:41:11.148Z,9.84
2022-11-17T21:43:39.898Z,9.85
2022-11-17T21:46:09.188Z,9.84
2022-11-17T21:48:37.290Z,9.83
2022-11-17T21:51:05.398Z,9.87
2022-11-17T21:53:32.179Z,9.90
2022-11-17T21:56:02.485Z,9.90
2022-11-17T21:58:29.414Z,9.91
2022-11-17T22:00:56.337Z,9.90
2022-11-17T22:03:24.299Z,9.91
2022-11-17T22:05:52.353Z,9.96
2022-11-17T22:08:19.381Z,9.94
2022-11-17T22:10:45.961Z,9.91
2022-11-17T22:13:12.719Z,9.88
2022-11-17T22:15:39.455Z,9.87
2022-11-17T22:18:06.276Z,9.78
2022-11-17T22:20:32.931Z,9.77
2022-11-17T22:22:59.606Z,9.85
2022-11-17T22:25:44.244Z,9.78
2022-11-17T22:28:11.853Z,9.90
2022-11-17T22:30:38.973Z,9.91
2022-11-17T22:33:05.783Z,9.91
2022-11-17T22:35:32.512Z,9.89
2022-11-17T22:37:59.171Z,9.83
2022-11-17T22:40:25.790Z,9.80
2022-11-17T22:42:52.816Z,9.75
2022-11-17T22:45:19.512Z,9.86
2022-11-17T22:47:46.303Z,9.93
2022-11-17T22:50:13.039Z,9.91
2022-11-17T22:52:39.714Z,9.86
2022-11-17T22:55:06.696Z,9.78
2022-11-17T22:57:33.403Z,9.79
2022-11-17T23:00:00.014Z,9.85
2022-11-17T23:02:26.703Z,9.85
2022-11-17T23:04:53.554Z,9.81
2022-11-17T23:07:20.340Z,9.76
2022-11-17T23:09:46.950Z,9.69
2022-11-17T23:12:14.531Z,9.73
2022-11-17T23:14:41.146Z,9.82
2022-11-17T23:17:07.851Z,9.86
2022-11-17T23:19:34.547Z,9.81
2022-11-17T23:22:01.182Z,9.80
2022-11-17T23:24:27.779Z,9.79
2022-11-17T23:26:54.660Z,9.75
2022-11-17T23:29:21.537Z,9.83
2022-11-17T23:31:48.230Z,9.81
2022-11-17T23:34:14.946Z,9.77
2022-11-17T23:36:41.582Z,9.82
2022-11-17T23:39:08.286Z,9.81
2022-11-17T23:41:34.992Z,9.78
2022-11-17T23:44:01.618Z,9.71
2022-11-17T23:46:28.437Z,9.70
2022-11-17T23:48:57.086Z,9.71
2022-11-17T23:51:25.733Z,9.79
2022-11-17T23:53:52.961Z,9.73
2022-11-17T23:56:20.643Z,9.76
2022-11-17T23:58:48.027Z,9.71
